SondeTracker

Meteorological Radiosondes Database

Operations

Sounding was ended - last measurement: 2021-04-01 13:38:20z

MAP
About Radiosonde

Number: S0820106

Launch Site: Florianopolis (BR)

Type: RS41

AUX: NO

Frequency: 405.301 MHz

Max Speed: 137 km/h at 12507 m

Average Speed: 55.68 km/h

Max Altitude: 22087 m

Average Ascent Speed: 6.79 m/s

Average Descent Speed: 5.47 m/s

Status: LOST

Status Changes
Launch Site Type AUX Frequency Status Finder Landing Point Description Changes made by
MHz LOST 0, 0 AUTO STATUS: Probably lost in the water [BOT]AUTO-STATUS - 2021-04-01 14:38:20z
APRS Statistics

Received Frames: 338

First Frame [UTC]: 2021-04-01 11:39:00z

Last Frame [UTC]: 2021-04-01 13:38:20z

Receivers: PP5UF-6

Flight Time: 01:59:20 h

Distance From First Measurement: 100.55 km

Nearest City: [0.00 km]

Nearest Hunter: [0.00 km]

Ground Altitude: -123 m

Distance from QTH: 0.00 km

APRS Data
Receiver Number Date/Time [UTC] φ λ Course [°] Speed [km/h] Altitude [m] Description
PP5UF-6S08201062021-04-01 13:38:20-27.2896-47.6026344389Clb=-4.4m/s t=21.3C 405.301 MHz Type=RS41-SGP Vaisala http://sondehub.org/S0820106 https://radiosondy.info/sonde.php?sondenumber
PP5UF-6S08201062021-04-01 13:38:00-27.2912-47.60383043153Clb=-5.2m/s t=20.7C 405.301 MHz Type=RS41-SGP Vaisala http://sondehub.org/S0820106 https://radiosondy.info/sonde.php?sondenumber
PP5UF-6S08201062021-04-01 13:37:40-27.2943-47.60512237280Clb=-4.6m/s t=19.4C 405.301 MHz Type=RS41-SGP Vaisala http://sondehub.org/S0820106 https://radiosondy.info/sonde.php?sondenumber
PP5UF-6S08201062021-04-01 13:37:20-27.2947-47.60532439291Clb=-4.2m/s t=19.2C 405.301 MHz Type=RS41-SGP Vaisala http://sondehub.org/S0820106 https://radiosondy.info/sonde.php?sondenumber
PP5UF-6S08201062021-04-01 13:37:00-27.2973-47.60641641400Clb=-3.9m/s t=18.4C 405.301 MHz Type=RS41-SGP Vaisala http://sondehub.org/S0820106 https://radiosondy.info/sonde.php?sondenumber
PP5UF-6S08201062021-04-01 13:36:40-27.3004-47.6071843509Clb=-3.8m/s t=17.7C 405.301 MHz Type=RS41-SGP Vaisala http://sondehub.org/S0820106 https://radiosondy.info/sonde.php?sondenumber
PP5UF-6S08201062021-04-01 13:36:20-27.3008-47.6071443524Clb=-3.7m/s t=17.7C 405.301 MHz Type=RS41-SGP Vaisala http://sondehub.org/S0820106 https://radiosondy.info/sonde.php?sondenumber
PP5UF-6S08201062021-04-01 13:36:01-27.3035-47.6074544609Clb=-3.7m/s t=17.7C 405.301 MHz Type=RS41-SGP Vaisala http://sondehub.org/S0820106 https://radiosondy.info/sonde.php?sondenumber
PP5UF-6S08201062021-04-01 13:35:40-27.3065-47.6077643705Clb=-3.4m/s t=17.0C 405.301 MHz Type=RS41-SGP Vaisala http://sondehub.org/S0820106 https://radiosondy.info/sonde.php?sondenumber
PP5UF-6S08201062021-04-01 13:35:20-27.3074-47.6079444735Clb=-3.4m/s t=16.8C 405.301 MHz Type=RS41-SGP Vaisala http://sondehub.org/S0820106 https://radiosondy.info/sonde.php?sondenumber
PP5UF-6S08201062021-04-01 13:35:00-27.3096-47.608243803Clb=-3.4m/s t=16.4C 405.301 MHz Type=RS41-SGP Vaisala http://sondehub.org/S0820106 https://radiosondy.info/sonde.php?sondenumber
PP5UF-6S08201062021-04-01 13:34:40-27.3126-47.60835844893Clb=-3.4m/s t=15.6C 405.301 MHz Type=RS41-SGP Vaisala http://sondehub.org/S0820106 https://radiosondy.info/sonde.php?sondenumber
PP5UF-6S08201062021-04-01 13:34:20-27.3154-47.60835744982Clb=-3.6m/s t=14.8C 405.301 MHz Type=RS41-SGP Vaisala http://sondehub.org/S0820106 https://radiosondy.info/sonde.php?sondenumber
PP5UF-6S08201062021-04-01 13:34:00-27.3165-47.6079359431018Clb=-3.6m/s t=14.5C 405.301 MHz Type=RS41-SGP Vaisala http://sondehub.org/S0820106 https://radiosondy.info/sonde.php?sondenumber
PP5UF-6S08201062021-04-01 13:33:40-27.3186-47.6078355431087Clb=-3.6m/s t=14.2C 405.301 MHz Type=RS41-SGP Vaisala http://sondehub.org/S0820106 https://radiosondy.info/sonde.php?sondenumber
PP5UF-6S08201062021-04-01 13:33:20-27.3208-47.6077358411157Clb=-3.6m/s t=13.8C 405.301 MHz Type=RS41-SGP Vaisala http://sondehub.org/S0820106 https://radiosondy.info/sonde.php?sondenumber
PP5UF-6S08201062021-04-01 13:33:00-27.3234-47.60783351255Clb=-3.7m/s t=13.0C 405.301 MHz Type=RS41-SGP Vaisala http://sondehub.org/S0820106 https://radiosondy.info/sonde.php?sondenumber
PP5UF-6S08201062021-04-01 13:32:40-27.3256-47.60796311341Clb=-3.2m/s t=12.5C 405.301 MHz Type=RS41-SGP Vaisala http://sondehub.org/S0820106 https://radiosondy.info/sonde.php?sondenumber
PP5UF-6S08201062021-04-01 13:32:20-27.3263-47.6088311369Clb=-3.2m/s t=12.4C 405.301 MHz Type=RS41-SGP Vaisala http://sondehub.org/S0820106 https://radiosondy.info/sonde.php?sondenumber
PP5UF-6S08201062021-04-01 13:32:00-27.3278-47.608211311426Clb=-3.2m/s t=12.2C 405.301 MHz Type=RS41-SGP Vaisala http://sondehub.org/S0820106 https://radiosondy.info/sonde.php?sondenumber
PP5UF-6S08201062021-04-01 13:31:40-27.33-47.608613351506Clb=-3.2m/s t=11.6C 405.301 MHz Type=RS41-SGP Vaisala http://sondehub.org/S0820106 https://radiosondy.info/sonde.php?sondenumber
PP5UF-6S08201062021-04-01 13:31:20-27.3311-47.60883311547Clb=-3.2m/s t=11.3C 405.301 MHz Type=RS41-SGP Vaisala http://sondehub.org/S0820106 https://radiosondy.info/sonde.php?sondenumber
PP5UF-6S08201062021-04-01 13:31:01-27.3328-47.6089357331609Clb=-2.9m/s t=11.3C 405.301 MHz Type=RS41-SGP Vaisala http://sondehub.org/S0820106 https://radiosondy.info/sonde.php?sondenumber
PP5UF-6S08201062021-04-01 13:30:40-27.3346-47.6088354331669Clb=-3.0m/s t=10.8C 405.301 MHz Type=RS41-SGP Vaisala http://sondehub.org/S0820106 https://radiosondy.info/sonde.php?sondenumber
PP5UF-6S08201062021-04-01 13:30:20-27.3363-47.6086355331720Clb=-2.2m/s t=10.9C 405.301 MHz Type=RS41-SGP Vaisala http://sondehub.org/S0820106 https://radiosondy.info/sonde.php?sondenumber
PP5UF-6S08201062021-04-01 13:30:00-27.3381-47.6083350371783Clb=-3.2m/s t=10.6C 405.301 MHz Type=RS41-SGP Vaisala http://sondehub.org/S0820106 https://radiosondy.info/sonde.php?sondenumber
PP5UF-6S08201062021-04-01 13:29:40-27.3399-47.608356331841Clb=-3.0m/s t=10.4C 405.301 MHz Type=RS41-SGP Vaisala http://sondehub.org/S0820106 https://radiosondy.info/sonde.php?sondenumber
PP5UF-6S08201062021-04-01 13:29:20-27.3422-47.60791351922Clb=-2.5m/s t=9.8C 405.301 MHz Type=RS41-SGP Vaisala http://sondehub.org/S0820106 https://radiosondy.info/sonde.php?sondenumber=
PP5UF-6S08201062021-04-01 13:29:00-27.3433-47.6085311962Clb=-3.3m/s t=9.7C 405.301 MHz Type=RS41-SGP Vaisala http://sondehub.org/S0820106 https://radiosondy.info/sonde.php?sondenumber=
PP5UF-6S08201062021-04-01 13:28:40-27.3449-47.60810282027Clb=-3.6m/s t=9.3C 405.301 MHz Type=RS41-SGP Vaisala http://sondehub.org/S0820106 https://radiosondy.info/sonde.php?sondenumber=
PP5UF-6S08201062021-04-01 13:28:20-27.3466-47.60810302105Clb=-3.4m/s t=8.9C 405.301 MHz Type=RS41-SGP Vaisala http://sondehub.org/S0820106 https://radiosondy.info/sonde.php?sondenumber=
PP5UF-6S08201062021-04-01 13:28:00-27.348-47.60825282177Clb=-3.7m/s t=8.4C 405.301 MHz Type=RS41-SGP Vaisala http://sondehub.org/S0820106 https://radiosondy.info/sonde.php?sondenumber=
PP5UF-6S08201062021-04-01 13:27:40-27.3494-47.608311262247Clb=-3.1m/s t=7.9C 405.301 MHz Type=RS41-SGP Vaisala http://sondehub.org/S0820106 https://radiosondy.info/sonde.php?sondenumber=
PP5UF-6S08201062021-04-01 13:27:20-27.3511-47.608818302330Clb=-3.7m/s t=7.7C 405.301 MHz Type=RS41-SGP Vaisala http://sondehub.org/S0820106 https://radiosondy.info/sonde.php?sondenumber=
PP5UF-6S08201062021-04-01 13:27:00-27.3525-47.609425282409Clb=-3.5m/s t=7.3C 405.301 MHz Type=RS41-SGP Vaisala http://sondehub.org/S0820106 https://radiosondy.info/sonde.php?sondenumber=
PP5UF-6S08201062021-04-01 13:26:40-27.3538-47.610126302471Clb=-3.5m/s t=6.8C 405.301 MHz Type=RS41-SGP Vaisala http://sondehub.org/S0820106 https://radiosondy.info/sonde.php?sondenumber=
PP5UF-6S08201062021-04-01 13:26:20-27.3548-47.610728302518Clb=-3.2m/s t=6.6C 405.301 MHz Type=RS41-SGP Vaisala http://sondehub.org/S0820106 https://radiosondy.info/sonde.php?sondenumber=
PP5UF-6S08201062021-04-01 13:26:01-27.356-47.611531282579Clb=-3.2m/s t=6.4C 405.301 MHz Type=RS41-SGP Vaisala http://sondehub.org/S0820106 https://radiosondy.info/sonde.php?sondenumber=
PP5UF-6S08201062021-04-01 13:25:40-27.3574-47.612531282643Clb=-2.9m/s t=6.0C 405.301 MHz Type=RS41-SGP Vaisala http://sondehub.org/S0820106 https://radiosondy.info/sonde.php?sondenumber=
PP5UF-6S08201062021-04-01 13:25:20-27.3586-47.613431282702Clb=-3.0m/s t=5.9C 405.301 MHz Type=RS41-SGP Vaisala http://sondehub.org/S0820106 https://radiosondy.info/sonde.php?sondenumber=
PP5UF-6S08201062021-04-01 13:25:00-27.3605-47.614832302795Clb=-3.3m/s t=5.6C 405.301 MHz Type=RS41-SGP Vaisala http://sondehub.org/S0820106 https://radiosondy.info/sonde.php?sondenumber=
PP5UF-6S08201062021-04-01 13:24:40-27.3609-47.61532302811Clb=-3.2m/s t=5.5C 405.301 MHz Type=RS41-SGP Vaisala http://sondehub.org/S0820106 https://radiosondy.info/sonde.php?sondenumber=
PP5UF-6S08201062021-04-01 13:24:20-27.3621-47.615932302877Clb=-3.3m/s t=5.1C 405.301 MHz Type=RS41-SGP Vaisala http://sondehub.org/S0820106 https://radiosondy.info/sonde.php?sondenumber=
PP5UF-6S08201062021-04-01 13:24:00-27.3635-47.616728282953Clb=-3.8m/s t=4.7C 405.301 MHz Type=RS41-SGP Vaisala http://sondehub.org/S0820106 https://radiosondy.info/sonde.php?sondenumber=
PP5UF-6S08201062021-04-01 13:23:40-27.3648-47.617422303028Clb=-4.2m/s t=4.3C 405.301 MHz Type=RS41-SGP Vaisala http://sondehub.org/S0820106 https://radiosondy.info/sonde.php?sondenumber=
PP5UF-6S08201062021-04-01 13:23:20-27.3662-47.61819303106Clb=-4.1m/s t=3.8C 405.301 MHz Type=RS41-SGP Vaisala http://sondehub.org/S0820106 https://radiosondy.info/sonde.php?sondenumber=
PP5UF-6S08201062021-04-01 13:23:00-27.3677-47.618615303184Clb=-4.0m/s t=3.3C 405.301 MHz Type=RS41-SGP Vaisala http://sondehub.org/S0820106 https://radiosondy.info/sonde.php?sondenumber=
PP5UF-6S08201062021-04-01 13:22:40-27.3692-47.61915313263Clb=-4.1m/s t=2.9C 405.301 MHz Type=RS41-SGP Vaisala http://sondehub.org/S0820106 https://radiosondy.info/sonde.php?sondenumber=
PP5UF-6S08201062021-04-01 13:22:20-27.3706-47.619414283343Clb=-4.0m/s t=2.5C 405.301 MHz Type=RS41-SGP Vaisala http://sondehub.org/S0820106 https://radiosondy.info/sonde.php?sondenumber=
PP5UF-6S08201062021-04-01 13:22:00-27.3719-47.619813263422Clb=-4.3m/s t=2.1C 405.301 MHz Type=RS41-SGP Vaisala http://sondehub.org/S0820106 https://radiosondy.info/sonde.php?sondenumber=
PP5UF-6S08201062021-04-01 13:21:40-27.3732-47.620112223502Clb=-3.7m/s t=1.7C 405.301 MHz Type=RS41-SGP Vaisala http://sondehub.org/S0820106 https://radiosondy.info/sonde.php?sondenumber=
PP5UF-6S08201062021-04-01 13:21:20-27.3743-47.620413223569Clb=-4.1m/s t=1.4C 405.301 MHz Type=RS41-SGP Vaisala http://sondehub.org/S0820106 https://radiosondy.info/sonde.php?sondenumber=
PP5UF-6S08201062021-04-01 13:20:40-27.3766-47.621532243736Clb=-4.1m/s t=0.5C 405.301 MHz Type=RS41-SGP Vaisala http://sondehub.org/S0820106 https://radiosondy.info/sonde.php?sondenumber=
PP5UF-6S08201062021-04-01 13:20:20-27.3777-47.622327303810Clb=-3.5m/s t=0.6C 405.301 MHz Type=RS41-SGP Vaisala http://sondehub.org/S0820106 https://radiosondy.info/sonde.php?sondenumber=
PP5UF-6S08201062021-04-01 13:20:00-27.3791-47.623232313887Clb=-3.6m/s t=0.3C 405.301 MHz Type=RS41-SGP Vaisala http://sondehub.org/S0820106 https://radiosondy.info/sonde.php?sondenumber=
PP5UF-6S08201062021-04-01 13:19:40-27.3805-47.624333353963Clb=-3.9m/s t=-0.3C 405.301 MHz Type=RS41-SGP Vaisala http://sondehub.org/S0820106 https://radiosondy.info/sonde.php?sondenumber
PP5UF-6S08201062021-04-01 13:19:20-27.3821-47.625635394037Clb=-3.9m/s t=-1.0C 405.301 MHz Type=RS41-SGP Vaisala http://sondehub.org/S0820106 https://radiosondy.info/sonde.php?sondenumber
PP5UF-6S08201062021-04-01 13:19:00-27.3835-47.626733374109Clb=-4.2m/s t=-1.1C 405.301 MHz Type=RS41-SGP Vaisala http://sondehub.org/S0820106 https://radiosondy.info/sonde.php?sondenumber
PP5UF-6S08201062021-04-01 13:18:40-27.3852-47.627828374195Clb=-4.3m/s t=-1.9C 405.301 MHz Type=RS41-SGP Vaisala http://sondehub.org/S0820106 https://radiosondy.info/sonde.php?sondenumber
PP5UF-6S08201062021-04-01 13:18:20-27.3869-47.628831374275Clb=-3.7m/s t=-2.5C 405.301 MHz Type=RS41-SGP Vaisala http://sondehub.org/S0820106 https://radiosondy.info/sonde.php?sondenumber
PP5UF-6S08201062021-04-01 13:18:00-27.3887-47.630130354353Clb=-3.8m/s t=-2.9C 405.301 MHz Type=RS41-SGP Vaisala http://sondehub.org/S0820106 https://radiosondy.info/sonde.php?sondenumber
PP5UF-6S08201062021-04-01 13:17:40-27.3901-47.631132354428Clb=-4.2m/s t=-1.4C 405.301 MHz Type=RS41-SGP Vaisala http://sondehub.org/S0820106 https://radiosondy.info/sonde.php?sondenumber
PP5UF-6S08201062021-04-01 13:17:20-27.3916-47.632134334508Clb=-3.8m/s t=-1.4C 405.301 MHz Type=RS41-SGP Vaisala http://sondehub.org/S0820106 https://radiosondy.info/sonde.php?sondenumber
PP5UF-6S08201062021-04-01 13:17:00-27.3931-47.633646354597Clb=-4.0m/s t=-1.1C 405.301 MHz Type=RS41-SGP Vaisala http://sondehub.org/S0820106 https://radiosondy.info/sonde.php?sondenumber
PP5UF-6S08201062021-04-01 13:16:40-27.3942-47.635152394668Clb=-4.1m/s t=-1.5C 405.301 MHz Type=RS41-SGP Vaisala http://sondehub.org/S0820106 https://radiosondy.info/sonde.php?sondenumber
PP5UF-6S08201062021-04-01 13:16:20-27.3953-47.637160414748Clb=-4.0m/s t=-1.8C 405.301 MHz Type=RS41-SGP Vaisala http://sondehub.org/S0820106 https://radiosondy.info/sonde.php?sondenumber
PP5UF-6S08201062021-04-01 13:15:40-27.3973-47.641563374916Clb=-4.2m/s t=-2.9C 405.301 MHz Type=RS41-SGP Vaisala http://sondehub.org/S0820106 https://radiosondy.info/sonde.php?sondenumber
PP5UF-6S08201062021-04-01 13:15:20-27.398-47.643164334990Clb=-4.0m/s t=-3.5C 405.301 MHz Type=RS41-SGP Vaisala http://sondehub.org/S0820106 https://radiosondy.info/sonde.php?sondenumber
PP5UF-6S08201062021-04-01 13:15:00-27.3987-47.644860315069Clb=-4.0m/s t=-4.0C 405.301 MHz Type=RS41-SGP Vaisala http://sondehub.org/S0820106 https://radiosondy.info/sonde.php?sondenumber
PP5UF-6S08201062021-04-01 13:14:40-27.3995-47.646256285149Clb=-4.1m/s t=-4.7C 405.301 MHz Type=RS41-SGP Vaisala http://sondehub.org/S0820106 https://radiosondy.info/sonde.php?sondenumber
PP5UF-6S08201062021-04-01 13:14:20-27.4003-47.647550265230Clb=-3.6m/s t=-5.3C 405.301 MHz Type=RS41-SGP Vaisala http://sondehub.org/S0820106 https://radiosondy.info/sonde.php?sondenumber
PP5UF-6S08201062021-04-01 13:14:00-27.4013-47.648640265312Clb=-4.5m/s t=-5.9C 405.301 MHz Type=RS41-SGP Vaisala http://sondehub.org/S0820106 https://radiosondy.info/sonde.php?sondenumber
PP5UF-6S08201062021-04-01 13:13:40-27.4023-47.649751285396Clb=-4.1m/s t=-6.4C 405.301 MHz Type=RS41-SGP Vaisala http://sondehub.org/S0820106 https://radiosondy.info/sonde.php?sondenumber
PP5UF-6S08201062021-04-01 13:13:20-27.4031-47.65157305481Clb=-4.2m/s t=-6.9C 405.301 MHz Type=RS41-SGP Vaisala http://sondehub.org/S0820106 https://radiosondy.info/sonde.php?sondenumber
PP5UF-6S08201062021-04-01 13:13:00-27.4039-47.652660315567Clb=-4.2m/s t=-7.6C 405.301 MHz Type=RS41-SGP Vaisala http://sondehub.org/S0820106 https://radiosondy.info/sonde.php?sondenumber
PP5UF-6S08201062021-04-01 13:12:40-27.4047-47.654367355652Clb=-4.1m/s t=-8.3C 405.301 MHz Type=RS41-SGP Vaisala http://sondehub.org/S0820106 https://radiosondy.info/sonde.php?sondenumber
PP5UF-6S08201062021-04-01 13:12:20-27.4053-47.656271315738Clb=-4.1m/s t=-8.8C 405.301 MHz Type=RS41-SGP Vaisala http://sondehub.org/S0820106 https://radiosondy.info/sonde.php?sondenumber
PP5UF-6S08201062021-04-01 13:12:00-27.4057-47.657775285816Clb=-4.2m/s t=-9.2C 405.301 MHz Type=RS41-SGP Vaisala http://sondehub.org/S0820106 https://radiosondy.info/sonde.php?sondenumber
PP5UF-6S08201062021-04-01 13:11:40-27.406-47.659377285900Clb=-4.3m/s t=-9.9C 405.301 MHz Type=RS41-SGP Vaisala http://sondehub.org/S0820106 https://radiosondy.info/sonde.php?sondenumber
PP5UF-6S08201062021-04-01 13:11:20-27.4063-47.66178305985Clb=-3.9m/s t=-10.7C 405.301 MHz Type=RS41-SGP Vaisala http://sondehub.org/S0820106 https://radiosondy.info/sonde.php?sondenumbe
PP5UF-6S08201062021-04-01 13:11:02-27.4067-47.662679306069Clb=-4.2m/s t=-11.4C 405.301 MHz Type=RS41-SGP Vaisala http://sondehub.org/S0820106 https://radiosondy.info/sonde.php?sondenumbe
PP5UF-6S08201062021-04-01 13:10:40-27.4069-47.664378306155Clb=-4.2m/s t=-12.2C 405.301 MHz Type=RS41-SGP Vaisala http://sondehub.org/S0820106 https://radiosondy.info/sonde.php?sondenumbe
PP5UF-6S08201062021-04-01 13:10:20-27.4073-47.666279306252Clb=-4.3m/s t=-13.1C 405.301 MHz Type=RS41-SGP Vaisala http://sondehub.org/S0820106 https://radiosondy.info/sonde.php?sondenumbe
PP5UF-6S08201062021-04-01 13:10:00-27.4075-47.667879336327Clb=-4.2m/s t=-13.8C 405.301 MHz Type=RS41-SGP Vaisala http://sondehub.org/S0820106 https://radiosondy.info/sonde.php?sondenumbe
PP5UF-6S08201062021-04-01 13:09:40-27.4078-47.669575336406Clb=-4.4m/s t=-14.5C 405.301 MHz Type=RS41-SGP Vaisala http://sondehub.org/S0820106 https://radiosondy.info/sonde.php?sondenumbe
PP5UF-6S08201062021-04-01 13:09:20-27.4083-47.671476356489Clb=-4.0m/s t=-15.2C 405.301 MHz Type=RS41-SGP Vaisala http://sondehub.org/S0820106 https://radiosondy.info/sonde.php?sondenumbe
PP5UF-6S08201062021-04-01 13:09:00-27.4087-47.673475356571Clb=-3.8m/s t=-15.8C 405.301 MHz Type=RS41-SGP Vaisala http://sondehub.org/S0820106 https://radiosondy.info/sonde.php?sondenumbe
PP5UF-6S08201062021-04-01 13:08:40-27.4092-47.675478356654Clb=-3.9m/s t=-16.5C 405.301 MHz Type=RS41-SGP Vaisala http://sondehub.org/S0820106 https://radiosondy.info/sonde.php?sondenumbe
PP5UF-6S08201062021-04-01 13:08:20-27.4095-47.677481396737Clb=-4.2m/s t=-17.1C 405.301 MHz Type=RS41-SGP Vaisala http://sondehub.org/S0820106 https://radiosondy.info/sonde.php?sondenumbe
PP5UF-6S08201062021-04-01 13:08:00-27.4098-47.679778396820Clb=-4.4m/s t=-17.8C 405.301 MHz Type=RS41-SGP Vaisala http://sondehub.org/S0820106 https://radiosondy.info/sonde.php?sondenumbe
PP5UF-6S08201062021-04-01 13:07:40-27.4103-47.682274416914Clb=-4.2m/s t=-18.4C 405.301 MHz Type=RS41-SGP Vaisala http://sondehub.org/S0820106 https://radiosondy.info/sonde.php?sondenumbe
PP5UF-6S08201062021-04-01 13:07:20-27.4108-47.684473417002Clb=-4.4m/s t=-19.0C 405.301 MHz Type=RS41-SGP Vaisala http://sondehub.org/S0820106 https://radiosondy.info/sonde.php?sondenumbe
PP5UF-6S08201062021-04-01 13:07:00-27.4113-47.686477397080Clb=-4.4m/s t=-19.6C 405.301 MHz Type=RS41-SGP Vaisala http://sondehub.org/S0820106 https://radiosondy.info/sonde.php?sondenumbe
PP5UF-6S08201062021-04-01 13:06:40-27.4117-47.688780437167Clb=-4.4m/s t=-20.5C 405.301 MHz Type=RS41-SGP Vaisala http://sondehub.org/S0820106 https://radiosondy.info/sonde.php?sondenumbe
PP5UF-6S08201062021-04-01 13:06:20-27.4119-47.69185417257Clb=-4.4m/s t=-21.3C 405.301 MHz Type=RS41-SGP Vaisala http://sondehub.org/S0820106 https://radiosondy.info/sonde.php?sondenumbe
PP5UF-6S08201062021-04-01 13:05:00-27.4128-47.702974567680Clb=-4.7m/s t=-23.5C 405.301 MHz Type=RS41-SGP Vaisala http://sondehub.org/S0820106 https://radiosondy.info/sonde.php?sondenumbe
PP5UF-6S08201062021-04-01 13:04:40-27.413-47.70475597712Clb=-4.6m/s t=-23.7C 405.301 MHz Type=RS41-SGP Vaisala http://sondehub.org/S0820106 https://radiosondy.info/sonde.php?sondenumbe
PP5UF-6S08201062021-04-01 13:04:20-27.4137-47.707177597801Clb=-4.7m/s t=-24.4C 405.301 MHz Type=RS41-SGP Vaisala http://sondehub.org/S0820106 https://radiosondy.info/sonde.php?sondenumbe
PP5UF-6S08201062021-04-01 13:04:00-27.4148-47.712375657946Clb=-4.6m/s t=-25.7C 405.301 MHz Type=RS41-SGP Vaisala http://sondehub.org/S0820106 https://radiosondy.info/sonde.php?sondenumbe
PP5UF-6S08201062021-04-01 13:03:40-27.4153-47.714175697994Clb=-4.8m/s t=-26.0C 405.301 MHz Type=RS41-SGP Vaisala http://sondehub.org/S0820106 https://radiosondy.info/sonde.php?sondenumbe
PP5UF-6S08201062021-04-01 13:03:20-27.4163-47.718370708102Clb=-4.9m/s t=-26.3C 405.301 MHz Type=RS41-SGP Vaisala http://sondehub.org/S0820106 https://radiosondy.info/sonde.php?sondenumbe
PP5UF-6S08201062021-04-01 13:03:00-27.4175-47.721667748184Clb=-5.2m/s t=-26.3C 405.301 MHz Type=RS41-SGP Vaisala http://sondehub.org/S0820106 https://radiosondy.info/sonde.php?sondenumbe
PP5UF-6S08201062021-04-01 13:02:40-27.42-47.727763818329Clb=-4.9m/s t=-26.8C 405.301 MHz Type=RS41-SGP Vaisala http://sondehub.org/S0820106 https://radiosondy.info/sonde.php?sondenumbe
PP5UF-6S08201062021-04-01 13:02:20-27.4209-47.729863838378Clb=-5.1m/s t=-27.2C 405.301 MHz Type=RS41-SGP Vaisala http://sondehub.org/S0820106 https://radiosondy.info/sonde.php?sondenumbe
PP5UF-6S08201062021-04-01 13:02:00-27.4227-47.734166858476Clb=-5.0m/s t=-28.0C 405.301 MHz Type=RS41-SGP Vaisala http://sondehub.org/S0820106 https://radiosondy.info/sonde.php?sondenumbe
PP5UF-6S08201062021-04-01 13:01:40-27.4244-47.738566858575Clb=-5.1m/s t=-28.9C 405.301 MHz Type=RS41-SGP Vaisala http://sondehub.org/S0820106 https://radiosondy.info/sonde.php?sondenumbe
PP5UF-6S08201062021-04-01 13:01:20-27.4262-47.743167878679Clb=-4.9m/s t=-29.8C 405.301 MHz Type=RS41-SGP Vaisala http://sondehub.org/S0820106 https://radiosondy.info/sonde.php?sondenumbe
PP5UF-6S08201062021-04-01 13:01:00-27.4277-47.747669918775Clb=-5.3m/s t=-30.7C 405.301 MHz Type=RS41-SGP Vaisala http://sondehub.org/S0820106 https://radiosondy.info/sonde.php?sondenumbe
PP5UF-6S08201062021-04-01 13:00:40-27.4292-47.752470918878Clb=-5.0m/s t=-31.6C 405.301 MHz Type=RS41-SGP Vaisala http://sondehub.org/S0820106 https://radiosondy.info/sonde.php?sondenumbe
PP5UF-6S08201062021-04-01 13:00:20-27.4308-47.757470938981Clb=-5.3m/s t=-32.5C 405.301 MHz Type=RS41-SGP Vaisala http://sondehub.org/S0820106 https://radiosondy.info/sonde.php?sondenumbe
PP5UF-6S08201062021-04-01 13:00:00-27.4324-47.762370939085Clb=-5.3m/s t=-33.5C 405.301 MHz Type=RS41-SGP Vaisala http://sondehub.org/S0820106 https://radiosondy.info/sonde.php?sondenumbe
PP5UF-6S08201062021-04-01 12:59:40-27.4339-47.767271939190Clb=-5.3m/s t=-34.5C 405.301 MHz Type=RS41-SGP Vaisala http://sondehub.org/S0820106 https://radiosondy.info/sonde.php?sondenumbe
PP5UF-6S08201062021-04-01 12:59:20-27.4354-47.772169939295Clb=-5.4m/s t=-35.5C 405.301 MHz Type=RS41-SGP Vaisala http://sondehub.org/S0820106 https://radiosondy.info/sonde.php?sondenumbe
PP5UF-6S08201062021-04-01 12:59:00-27.437-47.77768939401Clb=-5.5m/s t=-36.4C 405.301 MHz Type=RS41-SGP Vaisala http://sondehub.org/S0820106 https://radiosondy.info/sonde.php?sondenumbe
PP5UF-6S08201062021-04-01 12:58:40-27.4386-47.782172969506Clb=-5.4m/s t=-37.2C 405.301 MHz Type=RS41-SGP Vaisala http://sondehub.org/S0820106 https://radiosondy.info/sonde.php?sondenumbe
PP5UF-6S08201062021-04-01 12:58:20-27.44-47.787373949613Clb=-5.3m/s t=-38.1C 405.301 MHz Type=RS41-SGP Vaisala http://sondehub.org/S0820106 https://radiosondy.info/sonde.php?sondenumbe
PP5UF-6S08201062021-04-01 12:58:00-27.4413-47.792474969719Clb=-5.4m/s t=-39.0C 405.301 MHz Type=RS41-SGP Vaisala http://sondehub.org/S0820106 https://radiosondy.info/sonde.php?sondenumbe
PP5UF-6S08201062021-04-01 12:57:40-27.4426-47.797676949827Clb=-5.3m/s t=-39.9C 405.301 MHz Type=RS41-SGP Vaisala http://sondehub.org/S0820106 https://radiosondy.info/sonde.php?sondenumbe
PP5UF-6S08201062021-04-01 12:57:20-27.4436-47.802978969933Clb=-5.7m/s t=-40.8C 405.301 MHz Type=RS41-SGP Vaisala http://sondehub.org/S0820106 https://radiosondy.info/sonde.php?sondenumbe
PP5UF-6S08201062021-04-01 12:57:00-27.4445-47.80838010010040Clb=-5.5m/s t=-41.7C 405.301 MHz Type=RS41-SGP Vaisala http://sondehub.org/S0820106 https://radiosondy.info/sonde.php?sondenumbe
PP5UF-6S08201062021-04-01 12:56:40-27.4453-47.81397910210146Clb=-5.4m/s t=-42.6C 405.301 MHz Type=RS41-SGP Vaisala http://sondehub.org/S0820106 https://radiosondy.info/sonde.php?sondenumbe
PP5UF-6S08201062021-04-01 12:56:20-27.4463-47.81957710210253Clb=-5.4m/s t=-43.6C 405.301 MHz Type=RS41-SGP Vaisala http://sondehub.org/S0820106 https://radiosondy.info/sonde.php?sondenumbe
PP5UF-6S08201062021-04-01 12:55:40-27.4489-47.83077610010466Clb=-5.4m/s t=-45.5C 405.301 MHz Type=RS41-SGP Vaisala http://sondehub.org/S0820106 https://radiosondy.info/sonde.php?sondenumbe
PP5UF-6S08201062021-04-01 12:55:20-27.4501-47.83637610410573Clb=-5.7m/s t=-46.4C 405.301 MHz Type=RS41-SGP Vaisala http://sondehub.org/S0820106 https://radiosondy.info/sonde.php?sondenumbe
PP5UF-6S08201062021-04-01 12:55:00-27.4514-47.84217610710680Clb=-5.5m/s t=-47.4C 405.301 MHz Type=RS41-SGP Vaisala http://sondehub.org/S0820106 https://radiosondy.info/sonde.php?sondenumbe
PP5UF-6S08201062021-04-01 12:54:40-27.4527-47.84797610710787Clb=-5.5m/s t=-48.5C 405.301 MHz Type=RS41-SGP Vaisala http://sondehub.org/S0820106 https://radiosondy.info/sonde.php?sondenumbe
PP5UF-6S08201062021-04-01 12:54:20-27.454-47.85397610910896Clb=-5.4m/s t=-49.5C 405.301 MHz Type=RS41-SGP Vaisala http://sondehub.org/S0820106 https://radiosondy.info/sonde.php?sondenumbe
PP5UF-6S08201062021-04-01 12:54:00-27.4555-47.85997310911004Clb=-5.6m/s t=-50.2C 405.301 MHz Type=RS41-SGP Vaisala http://sondehub.org/S0820106 https://radiosondy.info/sonde.php?sondenumbe
PP5UF-6S08201062021-04-01 12:53:40-27.4572-47.86576910711115Clb=-5.5m/s t=-50.6C 405.301 MHz Type=RS41-SGP Vaisala http://sondehub.org/S0820106 https://radiosondy.info/sonde.php?sondenumbe
PP5UF-6S08201062021-04-01 12:53:20-27.4594-47.87146511311225Clb=-5.9m/s t=-50.7C 405.301 MHz Type=RS41-SGP Vaisala http://sondehub.org/S0820106 https://radiosondy.info/sonde.php?sondenumbe
PP5UF-6S08201062021-04-01 12:53:00-27.4618-47.87736711311336Clb=-5.8m/s t=-51.2C 405.301 MHz Type=RS41-SGP Vaisala http://sondehub.org/S0820106 https://radiosondy.info/sonde.php?sondenumbe
PP5UF-6S08201062021-04-01 12:52:40-27.464-47.88326711311450Clb=-5.8m/s t=-51.8C 405.301 MHz Type=RS41-SGP Vaisala http://sondehub.org/S0820106 https://radiosondy.info/sonde.php?sondenumbe
PP5UF-6S08201062021-04-01 12:52:20-27.4661-47.88916711111563Clb=-5.9m/s t=-52.5C 405.301 MHz Type=RS41-SGP Vaisala http://sondehub.org/S0820106 https://radiosondy.info/sonde.php?sondenumbe
PP5UF-6S08201062021-04-01 12:52:00-27.4683-47.89496611111678Clb=-5.9m/s t=-53.4C 405.301 MHz Type=RS41-SGP Vaisala http://sondehub.org/S0820106 https://radiosondy.info/sonde.php?sondenumbe
PP5UF-6S08201062021-04-01 12:51:40-27.4705-47.90086711311794Clb=-5.7m/s t=-54.2C 405.301 MHz Type=RS41-SGP Vaisala http://sondehub.org/S0820106 https://radiosondy.info/sonde.php?sondenumbe
PP5UF-6S08201062021-04-01 12:51:20-27.4725-47.90676811311909Clb=-6.2m/s t=-55.2C 405.301 MHz Type=RS41-SGP Vaisala http://sondehub.org/S0820106 https://radiosondy.info/sonde.php?sondenumbe
PP5UF-6S08201062021-04-01 12:50:40-27.477-47.91886712012143Clb=-5.9m/s t=-56.0C 405.301 MHz Type=RS41-SGP Vaisala http://sondehub.org/S0820106 https://radiosondy.info/sonde.php?sondenumbe
PP5UF-6S08201062021-04-01 12:50:20-27.4793-47.92536812012261Clb=-5.8m/s t=-56.4C 405.301 MHz Type=RS41-SGP Vaisala http://sondehub.org/S0820106 https://radiosondy.info/sonde.php?sondenumbe
PP5UF-6S08201062021-04-01 12:50:00-27.4816-47.93187012612378Clb=-5.8m/s t=-56.7C 405.301 MHz Type=RS41-SGP Vaisala http://sondehub.org/S0820106 https://radiosondy.info/sonde.php?sondenumbe
PP5UF-6S08201062021-04-01 12:49:40-27.4836-47.93847012412497Clb=-6.0m/s t=-56.9C 405.301 MHz Type=RS41-SGP Vaisala http://sondehub.org/S0820106 https://radiosondy.info/sonde.php?sondenumbe
PP5UF-6S08201062021-04-01 12:49:20-27.4855-47.9457211912617Clb=-6.0m/s t=-56.8C 405.301 MHz Type=RS41-SGP Vaisala http://sondehub.org/S0820106 https://radiosondy.info/sonde.php?sondenumbe
PP5UF-6S08201062021-04-01 12:49:00-27.4872-47.95157512012739Clb=-6.2m/s t=-57.5C 405.301 MHz Type=RS41-SGP Vaisala http://sondehub.org/S0820106 https://radiosondy.info/sonde.php?sondenumbe
PP5UF-6S08201062021-04-01 12:48:40-27.4886-47.95797611712863Clb=-6.3m/s t=-58.2C 405.301 MHz Type=RS41-SGP Vaisala http://sondehub.org/S0820106 https://radiosondy.info/sonde.php?sondenumbe
PP5UF-6S08201062021-04-01 12:48:20-27.49-47.96447512212989Clb=-6.4m/s t=-58.9C 405.301 MHz Type=RS41-SGP Vaisala http://sondehub.org/S0820106 https://radiosondy.info/sonde.php?sondenumbe
PP5UF-6S08201062021-04-01 12:48:00-27.4916-47.97097311913117Clb=-6.8m/s t=-59.3C 405.301 MHz Type=RS41-SGP Vaisala http://sondehub.org/S0820106 https://radiosondy.info/sonde.php?sondenumbe
PP5UF-6S08201062021-04-01 12:47:40-27.4932-47.97727611313247Clb=-6.7m/s t=-59.6C 405.301 MHz Type=RS41-SGP Vaisala http://sondehub.org/S0820106 https://radiosondy.info/sonde.php?sondenumbe
PP5UF-6S08201062021-04-01 12:47:20-27.4944-47.98347810913379Clb=-6.4m/s t=-60.1C 405.301 MHz Type=RS41-SGP Vaisala http://sondehub.org/S0820106 https://radiosondy.info/sonde.php?sondenumbe
PP5UF-6S08201062021-04-01 12:47:00-27.4954-47.98927910413511Clb=-6.6m/s t=-60.8C 405.301 MHz Type=RS41-SGP Vaisala http://sondehub.org/S0820106 https://radiosondy.info/sonde.php?sondenumbe
PP5UF-6S08201062021-04-01 12:46:40-27.4962-47.9958310613643Clb=-6.6m/s t=-61.4C 405.301 MHz Type=RS41-SGP Vaisala http://sondehub.org/S0820106 https://radiosondy.info/sonde.php?sondenumbe
PP5UF-6S08201062021-04-01 12:46:20-27.4965-48.00128611513776Clb=-6.7m/s t=-61.7C 405.301 MHz Type=RS41-SGP Vaisala http://sondehub.org/S0820106 https://radiosondy.info/sonde.php?sondenumbe
PP5UF-6S08201062021-04-01 12:45:40-27.4979-48.01398210714046Clb=-6.8m/s t=-61.2C 405.301 MHz Type=RS41-SGP Vaisala http://sondehub.org/S0820106 https://radiosondy.info/sonde.php?sondenumbe
PP5UF-6S08201062021-04-01 12:45:20-27.4986-48.028210414183Clb=-6.8m/s t=-61.6C 405.301 MHz Type=RS41-SGP Vaisala http://sondehub.org/S0820106 https://radiosondy.info/sonde.php?sondenumbe
PP5UF-6S08201062021-04-01 12:45:00-27.4992-48.0254829314322Clb=-7.0m/s t=-62.1C 405.301 MHz Type=RS41-SGP Vaisala http://sondehub.org/S0820106 https://radiosondy.info/sonde.php?sondenumbe
PP5UF-6S08201062021-04-01 12:44:40-27.4998-48.0306829414462Clb=-7.1m/s t=-62.1C 405.301 MHz Type=RS41-SGP Vaisala http://sondehub.org/S0820106 https://radiosondy.info/sonde.php?sondenumbe
PP5UF-6S08201062021-04-01 12:44:20-27.5005-48.0359849314606Clb=-7.0m/s t=-62.5C 405.301 MHz Type=RS41-SGP Vaisala http://sondehub.org/S0820106 https://radiosondy.info/sonde.php?sondenumbe
PP5UF-6S08201062021-04-01 12:44:00-27.5008-48.0411859114753Clb=-7.7m/s t=-63.1C 405.301 MHz Type=RS41-SGP Vaisala http://sondehub.org/S0820106 https://radiosondy.info/sonde.php?sondenumbe
PP5UF-6S08201062021-04-01 12:43:40-27.5013-48.0462838714907Clb=-7.7m/s t=-63.1C 405.301 MHz Type=RS41-SGP Vaisala http://sondehub.org/S0820106 https://radiosondy.info/sonde.php?sondenumbe
PP5UF-6S08201062021-04-01 12:43:20-27.5018-48.0508857815062Clb=-7.5m/s t=-63.8C 405.301 MHz Type=RS41-SGP Vaisala http://sondehub.org/S0820106 https://radiosondy.info/sonde.php?sondenumbe
PP5UF-6S08201062021-04-01 12:43:00-27.5018-48.0551937615217Clb=-7.9m/s t=-64.7C 405.301 MHz Type=RS41-SGP Vaisala http://sondehub.org/S0820106 https://radiosondy.info/sonde.php?sondenumbe
PP5UF-6S08201062021-04-01 12:42:40-27.5013-48.0596938315374Clb=-7.9m/s t=-65.2C 405.301 MHz Type=RS41-SGP Vaisala http://sondehub.org/S0820106 https://radiosondy.info/sonde.php?sondenumbe
PP5UF-6S08201062021-04-01 12:42:20-27.5017-48.0645778515533Clb=-8.2m/s t=-64.7C 405.301 MHz Type=RS41-SGP Vaisala http://sondehub.org/S0820106 https://radiosondy.info/sonde.php?sondenumbe
PP5UF-6S08201062021-04-01 12:42:00-27.5028-48.0687687215693Clb=-8.0m/s t=-64.6C 405.301 MHz Type=RS41-SGP Vaisala http://sondehub.org/S0820106 https://radiosondy.info/sonde.php?sondenumbe
PP5UF-6S08201062021-04-01 12:41:40-27.5042-48.0723666115854Clb=-7.9m/s t=-65.4C 405.301 MHz Type=RS41-SGP Vaisala http://sondehub.org/S0820106 https://radiosondy.info/sonde.php?sondenumbe
PP5UF-6S08201062021-04-01 12:41:20-27.5054-48.0752705016016Clb=-8.3m/s t=-65.7C 405.301 MHz Type=RS41-SGP Vaisala http://sondehub.org/S0820106 https://radiosondy.info/sonde.php?sondenumbe
PP5UF-6S08201062021-04-01 12:40:40-27.5065-48.0806824816346Clb=-8.5m/s t=-67.8C 405.301 MHz Type=RS41-SGP Vaisala http://sondehub.org/S0820106 https://radiosondy.info/sonde.php?sondenumbe
PP5UF-6S08201062021-04-01 12:40:20-27.507-48.0838776516511Clb=-8.3m/s t=-68.3C 405.301 MHz Type=RS41-SGP Vaisala http://sondehub.org/S0820106 https://radiosondy.info/sonde.php?sondenumbe
PP5UF-6S08201062021-04-01 12:40:00-27.508-48.0876677216679Clb=-8.4m/s t=-69.2C 405.301 MHz Type=RS41-SGP Vaisala http://sondehub.org/S0820106 https://radiosondy.info/sonde.php?sondenumbe
PP5UF-6S08201062021-04-01 12:39:40-27.5096-48.0909566516845Clb=-7.1m/s t=-69.8C 405.301 MHz Type=RS41-SGP Vaisala http://sondehub.org/S0820106 https://radiosondy.info/sonde.php?sondenumbe
PP5UF-6S08201062021-04-01 12:39:20-27.5112-48.0933514417014Clb=-8.2m/s t=-70.8C 405.301 MHz Type=RS41-SGP Vaisala http://sondehub.org/S0820106 https://radiosondy.info/sonde.php?sondenumbe
PP5UF-6S08201062021-04-01 12:39:00-27.5123-48.0952653117188Clb=-8.8m/s t=-72.1C 405.301 MHz Type=RS41-SGP Vaisala http://sondehub.org/S0820106 https://radiosondy.info/sonde.php?sondenumbe
PP5UF-6S08201062021-04-01 12:38:40-27.5132-48.0967373017364Clb=-8.7m/s t=-72.0C 405.301 MHz Type=RS41-SGP Vaisala http://sondehub.org/S0820106 https://radiosondy.info/sonde.php?sondenumbe
PP5UF-6S08201062021-04-01 12:38:20-27.5146-48.0977343017542Clb=-8.7m/s t=-72.2C 405.301 MHz Type=RS41-SGP Vaisala http://sondehub.org/S0820106 https://radiosondy.info/sonde.php?sondenumbe
PP5UF-6S08201062021-04-01 12:38:00-27.5155-48.0988462417721Clb=-9.0m/s t=-72.5C 405.301 MHz Type=RS41-SGP Vaisala http://sondehub.org/S0820106 https://radiosondy.info/sonde.php?sondenumbe
PP5UF-6S08201062021-04-01 12:37:40-27.5163-48.0999632017903Clb=-8.9m/s t=-72.1C 405.301 MHz Type=RS41-SGP Vaisala http://sondehub.org/S0820106 https://radiosondy.info/sonde.php?sondenumbe
PP5UF-6S08201062021-04-01 12:37:20-27.5167-48.1007351918088Clb=-9.3m/s t=-71.2C 405.301 MHz Type=RS41-SGP Vaisala http://sondehub.org/S0820106 https://radiosondy.info/sonde.php?sondenumbe
PP5UF-6S08201062021-04-01 12:37:00-27.5173-48.101249918279Clb=-9.6m/s t=-71.1C 405.301 MHz Type=RS41-SGP Vaisala http://sondehub.org/S0820106 https://radiosondy.info/sonde.php?sondenumbe
PP5UF-6S08201062021-04-01 12:36:40-27.5173-48.10171071318475Clb=-9.8m/s t=-71.0C 405.301 MHz Type=RS41-SGP Vaisala http://sondehub.org/S0820106 https://radiosondy.info/sonde.php?sondenumbe
PP5UF-6S08201062021-04-01 12:36:20-27.5172-48.1024103718687Clb=-10.2m/s t=-70.7C 405.301 MHz Type=RS41-SGP Vaisala http://sondehub.org/S0820106 https://radiosondy.info/sonde.php?sondenumb
PP5UF-6S08201062021-04-01 12:35:40-27.5156-48.10281613319100Clb=-10.9m/s t=-69.3C 405.301 MHz Type=RS41-SGP Vaisala http://sondehub.org/S0820106 https://radiosondy.info/sonde.php?sondenumb
PP5UF-6S08201062021-04-01 12:35:20-27.5136-48.10391404119334Clb=-11.3m/s t=-67.7C 405.301 MHz Type=RS41-SGP Vaisala http://sondehub.org/S0820106 https://radiosondy.info/sonde.php?sondenumb
PP5UF-6S08201062021-04-01 12:35:00-27.5122-48.10541313719552Clb=-11.6m/s t=-66.5C 405.301 MHz Type=RS41-SGP Vaisala http://sondehub.org/S0820106 https://radiosondy.info/sonde.php?sondenumb
PP5UF-6S08201062021-04-01 12:34:40-27.5115-48.1068802019785Clb=-11.8m/s t=-66.2C 405.301 MHz Type=RS41-SGP Vaisala http://sondehub.org/S0820106 https://radiosondy.info/sonde.php?sondenumb
PP5UF-6S08201062021-04-01 12:34:20-27.512-48.107561920019Clb=-11.9m/s t=-63.6C 405.301 MHz Type=RS41-SGP Vaisala http://sondehub.org/S0820106 https://radiosondy.info/sonde.php?sondenumb
PP5UF-6S08201062021-04-01 12:34:00-27.5119-48.10821301720366Clb=-12.2m/s t=-64.3C 405.301 MHz Type=RS41-SGP Vaisala http://sondehub.org/S0820106 https://radiosondy.info/sonde.php?sondenumb
PP5UF-6S08201062021-04-01 12:33:40-27.5116-48.10861381320498Clb=-12.4m/s t=-63.7C 405.301 MHz Type=RS41-SGP Vaisala http://sondehub.org/S0820106 https://radiosondy.info/sonde.php?sondenumb
PP5UF-6S08201062021-04-01 12:33:20-27.5109-48.10911301720746Clb=-12.4m/s t=-62.6C 405.301 MHz Type=RS41-SGP Vaisala http://sondehub.org/S0820106 https://radiosondy.info/sonde.php?sondenumb
PP5UF-6S08201062021-04-01 12:33:00-27.5107-48.10991011520998Clb=-12.6m/s t=-60.7C 405.301 MHz Type=RS41-SGP Vaisala http://sondehub.org/S0820106 https://radiosondy.info/sonde.php?sondenumb
PP5UF-6S08201062021-04-01 12:32:40-27.5104-48.1101270421256Clb=-12.8m/s t=-59.0C 405.301 MHz Type=RS41-SGP Vaisala http://sondehub.org/S0820106 https://radiosondy.info/sonde.php?sondenumb
PP5UF-6S08201062021-04-01 12:32:20-27.5108-48.1102331321521Clb=-13.7m/s t=-59.5C 405.301 MHz Type=RS41-SGP Vaisala http://sondehub.org/S0820106 https://radiosondy.info/sonde.php?sondenumb
PP5UF-6S08201062021-04-01 12:32:00-27.5112-48.11042731921788Clb=-13.6m/s t=-59.6C 405.301 MHz Type=RS41-SGP Vaisala http://sondehub.org/S0820106 https://radiosondy.info/sonde.php?sondenumb
PP5UF-6S08201062021-04-01 12:31:40-27.5112-48.1098352022074Clb=-14.4m/s t=-58.7C 405.301 MHz Type=RS41-SGP Vaisala http://sondehub.org/S0820106 https://radiosondy.info/sonde.php?sondenumb
PP5UF-6S08201062021-04-01 12:31:20-27.5119-48.1101241622087Clb=5.1m/s t=-58.5C 405.301 MHz Type=RS41-SGP Vaisala http://sondehub.org/S0820106 https://radiosondy.info/sonde.php?sondenumber
PP5UF-6S08201062021-04-01 12:31:00-27.5121-48.1098239721938Clb=10.7m/s t=-58.4C 405.301 MHz Type=RS41-SGP Vaisala http://sondehub.org/S0820106 https://radiosondy.info/sonde.php?sondenumbe
PP5UF-6S08201062021-04-01 12:30:40-27.512-48.10872961521778Clb=8.0m/s t=-59.4C 405.301 MHz Type=RS41-SGP Vaisala http://sondehub.org/S0820106 https://radiosondy.info/sonde.php?sondenumber
PP5UF-6S08201062021-04-01 12:30:20-27.5124-48.108431421639Clb=11.9m/s t=-59.7C 405.301 MHz Type=RS41-SGP Vaisala http://sondehub.org/S0820106 https://radiosondy.info/sonde.php?sondenumbe
PP5UF-6S08201062021-04-01 12:30:00-27.5128-48.10967221487Clb=4.4m/s t=-59.0C 405.301 MHz Type=RS41-SGP Vaisala http://sondehub.org/S0820106 https://radiosondy.info/sonde.php?sondenumber
PP5UF-6S08201062021-04-01 12:29:40-27.5131-48.10911221356Clb=5.8m/s t=-59.0C 405.301 MHz Type=RS41-SGP Vaisala http://sondehub.org/S0820106 https://radiosondy.info/sonde.php?sondenumber
PP5UF-6S08201062021-04-01 12:29:20-27.5133-48.1091242921220Clb=5.0m/s t=-58.5C 405.301 MHz Type=RS41-SGP Vaisala http://sondehub.org/S0820106 https://radiosondy.info/sonde.php?sondenumber
PP5UF-6S08201062021-04-01 12:29:00-27.5131-48.109188621096Clb=7.7m/s t=-59.0C 405.301 MHz Type=RS41-SGP Vaisala http://sondehub.org/S0820106 https://radiosondy.info/sonde.php?sondenumber
PP5UF-6S08201062021-04-01 12:28:40-27.5128-48.10961271320952Clb=4.8m/s t=-60.3C 405.301 MHz Type=RS41-SGP Vaisala http://sondehub.org/S0820106 https://radiosondy.info/sonde.php?sondenumber
PP5UF-6S08201062021-04-01 12:28:20-27.5125-48.110496720811Clb=10.8m/s t=-62.2C 405.301 MHz Type=RS41-SGP Vaisala http://sondehub.org/S0820106 https://radiosondy.info/sonde.php?sondenumbe
PP5UF-6S08201062021-04-01 12:28:00-27.5118-48.11151192820672Clb=7.1m/s t=-62.9C 405.301 MHz Type=RS41-SGP Vaisala http://sondehub.org/S0820106 https://radiosondy.info/sonde.php?sondenumber
PP5UF-6S08201062021-04-01 12:27:40-27.511-48.11211551520531Clb=8.2m/s t=-64.0C 405.301 MHz Type=RS41-SGP Vaisala http://sondehub.org/S0820106 https://radiosondy.info/sonde.php?sondenumber
PP5UF-6S08201062021-04-01 12:27:20-27.5102-48.11311342020404Clb=7.3m/s t=-64.6C 405.301 MHz Type=RS41-SGP Vaisala http://sondehub.org/S0820106 https://radiosondy.info/sonde.php?sondenumber
PP5UF-6S08201062021-04-01 12:27:00-27.5096-48.11371301920283Clb=6.3m/s t=-64.3C 405.301 MHz Type=RS41-SGP Vaisala http://sondehub.org/S0820106 https://radiosondy.info/sonde.php?sondenumber
PP5UF-6S08201062021-04-01 12:26:40-27.5095-48.1143102420155Clb=5.9m/s t=-64.4C 405.301 MHz Type=RS41-SGP Vaisala http://sondehub.org/S0820106 https://radiosondy.info/sonde.php?sondenumber
PP5UF-6S08201062021-04-01 12:26:20-27.5095-48.114990720025Clb=5.7m/s t=-64.3C 405.301 MHz Type=RS41-SGP Vaisala http://sondehub.org/S0820106 https://radiosondy.info/sonde.php?sondenumber
PP5UF-6S08201062021-04-01 12:25:40-27.5099-48.11691212419780Clb=6.4m/s t=-66.7C 405.301 MHz Type=RS41-SGP Vaisala http://sondehub.org/S0820106 https://radiosondy.info/sonde.php?sondenumber
PP5UF-6S08201062021-04-01 12:25:20-27.5091-48.11831313319653Clb=7.6m/s t=-66.9C 405.301 MHz Type=RS41-SGP Vaisala http://sondehub.org/S0820106 https://radiosondy.info/sonde.php?sondenumber
PP5UF-6S08201062021-04-01 12:25:00-27.5078-48.11971413019530Clb=4.8m/s t=-66.4C 405.301 MHz Type=RS41-SGP Vaisala http://sondehub.org/S0820106 https://radiosondy.info/sonde.php?sondenumber
PP5UF-6S08201062021-04-01 12:24:40-27.5065-48.1211333719408Clb=6.4m/s t=-67.7C 405.301 MHz Type=RS41-SGP Vaisala http://sondehub.org/S0820106 https://radiosondy.info/sonde.php?sondenumber
PP5UF-6S08201062021-04-01 12:24:20-27.5046-48.12221724419286Clb=4.2m/s t=-67.8C 405.301 MHz Type=RS41-SGP Vaisala http://sondehub.org/S0820106 https://radiosondy.info/sonde.php?sondenumber
PP5UF-6S08201062021-04-01 12:24:00-27.5028-48.12281633519169Clb=7.4m/s t=-69.8C 405.301 MHz Type=RS41-SGP Vaisala http://sondehub.org/S0820106 https://radiosondy.info/sonde.php?sondenumber
PP5UF-6S08201062021-04-01 12:23:40-27.5016-48.12271812419013Clb=10.6m/s t=-69.2C 405.301 MHz Type=RS41-SGP Vaisala http://sondehub.org/S0820106 https://radiosondy.info/sonde.php?sondenumbe
PP5UF-6S08201062021-04-01 12:23:20-27.501-48.12222471718878Clb=7.2m/s t=-68.4C 405.301 MHz Type=RS41-SGP Vaisala http://sondehub.org/S0820106 https://radiosondy.info/sonde.php?sondenumber
PP5UF-6S08201062021-04-01 12:23:00-27.5007-48.1215279918742Clb=6.8m/s t=-68.3C 405.301 MHz Type=RS41-SGP Vaisala http://sondehub.org/S0820106 https://radiosondy.info/sonde.php?sondenumber
PP5UF-6S08201062021-04-01 12:22:40-27.5009-48.121474618590Clb=8.2m/s t=-69.7C 405.301 MHz Type=RS41-SGP Vaisala http://sondehub.org/S0820106 https://radiosondy.info/sonde.php?sondenumber
PP5UF-6S08201062021-04-01 12:22:20-27.501-48.1221692218447Clb=5.9m/s t=-70.1C 405.301 MHz Type=RS41-SGP Vaisala http://sondehub.org/S0820106 https://radiosondy.info/sonde.php?sondenumber
PP5UF-6S08201062021-04-01 12:22:00-27.5009-48.123701118301Clb=11.6m/s t=-71.0C 405.301 MHz Type=RS41-SGP Vaisala http://sondehub.org/S0820106 https://radiosondy.info/sonde.php?sondenumbe
PP5UF-6S08201062021-04-01 12:21:40-27.5013-48.1239592018160Clb=5.6m/s t=-71.5C 405.301 MHz Type=RS41-SGP Vaisala http://sondehub.org/S0820106 https://radiosondy.info/sonde.php?sondenumber
PP5UF-6S08201062021-04-01 12:21:20-27.5016-48.12491072018016Clb=9.2m/s t=-72.7C 405.301 MHz Type=RS41-SGP Vaisala http://sondehub.org/S0820106 https://radiosondy.info/sonde.php?sondenumber
PP5UF-6S08201062021-04-01 12:20:40-27.5027-48.1271602217737Clb=3.6m/s t=-72.9C 405.301 MHz Type=RS41-SGP Vaisala http://sondehub.org/S0820106 https://radiosondy.info/sonde.php?sondenumber
PP5UF-6S08201062021-04-01 12:20:20-27.5035-48.128162617601Clb=8.4m/s t=-72.5C 405.301 MHz Type=RS41-SGP Vaisala http://sondehub.org/S0820106 https://radiosondy.info/sonde.php?sondenumber
PP5UF-6S08201062021-04-01 12:20:00-27.5049-48.1291304817466Clb=6.0m/s t=-72.1C 405.301 MHz Type=RS41-SGP Vaisala http://sondehub.org/S0820106 https://radiosondy.info/sonde.php?sondenumber
PP5UF-6S08201062021-04-01 12:19:40-27.5064-48.1302423117326Clb=9.7m/s t=-71.7C 405.301 MHz Type=RS41-SGP Vaisala http://sondehub.org/S0820106 https://radiosondy.info/sonde.php?sondenumber
PP5UF-6S08201062021-04-01 12:19:20-27.5073-48.1317672417172Clb=7.3m/s t=-71.9C 405.301 MHz Type=RS41-SGP Vaisala http://sondehub.org/S0820106 https://radiosondy.info/sonde.php?sondenumber
PP5UF-6S08201062021-04-01 12:19:00-27.5081-48.1337723917013Clb=10.2m/s t=-70.7C 405.301 MHz Type=RS41-SGP Vaisala http://sondehub.org/S0820106 https://radiosondy.info/sonde.php?sondenumbe
PP5UF-6S08201062021-04-01 12:18:40-27.5094-48.1359635016846Clb=9.8m/s t=-69.4C 405.301 MHz Type=RS41-SGP Vaisala http://sondehub.org/S0820106 https://radiosondy.info/sonde.php?sondenumber
PP5UF-6S08201062021-04-01 12:18:20-27.5111-48.139737216687Clb=11.3m/s t=-69.2C 405.301 MHz Type=RS41-SGP Vaisala http://sondehub.org/S0820106 https://radiosondy.info/sonde.php?sondenumbe
PP5UF-6S08201062021-04-01 12:18:00-27.5123-48.1428756316539Clb=5.8m/s t=-68.3C 405.301 MHz Type=RS41-SGP Vaisala http://sondehub.org/S0820106 https://radiosondy.info/sonde.php?sondenumber
PP5UF-6S08201062021-04-01 12:17:40-27.513-48.1461865016394Clb=10.0m/s t=-68.1C 405.301 MHz Type=RS41-SGP Vaisala http://sondehub.org/S0820106 https://radiosondy.info/sonde.php?sondenumbe
PP5UF-6S08201062021-04-01 12:17:20-27.5137-48.149734616257Clb=2.7m/s t=-67.2C 405.301 MHz Type=RS41-SGP Vaisala http://sondehub.org/S0820106 https://radiosondy.info/sonde.php?sondenumber
PP5UF-6S08201062021-04-01 12:17:00-27.5144-48.1517805216119Clb=6.4m/s t=-66.1C 405.301 MHz Type=RS41-SGP Vaisala http://sondehub.org/S0820106 https://radiosondy.info/sonde.php?sondenumber
PP5UF-6S08201062021-04-01 12:16:40-27.5152-48.1548716515992Clb=7.2m/s t=-65.3C 405.301 MHz Type=RS41-SGP Vaisala http://sondehub.org/S0820106 https://radiosondy.info/sonde.php?sondenumber
PP5UF-6S08201062021-04-01 12:16:20-27.5161-48.1581646315857Clb=6.3m/s t=-65.2C 405.301 MHz Type=RS41-SGP Vaisala http://sondehub.org/S0820106 https://radiosondy.info/sonde.php?sondenumber
PP5UF-6S08201062021-04-01 12:15:40-27.5188-48.1661748915575Clb=3.6m/s t=-65.1C 405.301 MHz Type=RS41-SGP Vaisala http://sondehub.org/S0820106 https://radiosondy.info/sonde.php?sondenumber
PP5UF-6S08201062021-04-01 12:15:20-27.5194-48.1713909815440Clb=13.0m/s t=-65.7C 405.301 MHz Type=RS41-SGP Vaisala http://sondehub.org/S0820106 https://radiosondy.info/sonde.php?sondenumbe
PP5UF-6S08201062021-04-01 12:15:00-27.5189-48.17621018115292Clb=5.7m/s t=-65.2C 405.301 MHz Type=RS41-SGP Vaisala http://sondehub.org/S0820106 https://radiosondy.info/sonde.php?sondenumber
PP5UF-6S08201062021-04-01 12:14:40-27.5187-48.1807878115157Clb=8.3m/s t=-64.8C 405.301 MHz Type=RS41-SGP Vaisala http://sondehub.org/S0820106 https://radiosondy.info/sonde.php?sondenumber
PP5UF-6S08201062021-04-01 12:14:20-27.5187-48.1853869115016Clb=6.0m/s t=-63.8C 405.301 MHz Type=RS41-SGP Vaisala http://sondehub.org/S0820106 https://radiosondy.info/sonde.php?sondenumber
PP5UF-6S08201062021-04-01 12:14:00-27.5191-48.1903869814865Clb=8.0m/s t=-63.2C 405.301 MHz Type=RS41-SGP Vaisala http://sondehub.org/S0820106 https://radiosondy.info/sonde.php?sondenumber
PP5UF-6S08201062021-04-01 12:13:40-27.5194-48.1955879814725Clb=4.8m/s t=-63.0C 405.301 MHz Type=RS41-SGP Vaisala http://sondehub.org/S0820106 https://radiosondy.info/sonde.php?sondenumber
PP5UF-6S08201062021-04-01 12:13:20-27.5197-48.2007869414588Clb=5.3m/s t=-62.7C 405.301 MHz Type=RS41-SGP Vaisala http://sondehub.org/S0820106 https://radiosondy.info/sonde.php?sondenumber
PP5UF-6S08201062021-04-01 12:13:00-27.5201-48.206849414462Clb=6.7m/s t=-63.0C 405.301 MHz Type=RS41-SGP Vaisala http://sondehub.org/S0820106 https://radiosondy.info/sonde.php?sondenumber
PP5UF-6S08201062021-04-01 12:12:40-27.5205-48.21137610214331Clb=8.9m/s t=-62.4C 405.301 MHz Type=RS41-SGP Vaisala http://sondehub.org/S0820106 https://radiosondy.info/sonde.php?sondenumber
PP5UF-6S08201062021-04-01 12:12:20-27.5212-48.21728011114192Clb=5.0m/s t=-62.4C 405.301 MHz Type=RS41-SGP Vaisala http://sondehub.org/S0820106 https://radiosondy.info/sonde.php?sondenumber
PP5UF-6S08201062021-04-01 12:12:00-27.522-48.22337510414062Clb=6.6m/s t=-61.5C 405.301 MHz Type=RS41-SGP Vaisala http://sondehub.org/S0820106 https://radiosondy.info/sonde.php?sondenumber
PP5UF-6S08201062021-04-01 12:11:40-27.5226-48.22948711513922Clb=7.5m/s t=-61.1C 405.301 MHz Type=RS41-SGP Vaisala http://sondehub.org/S0820106 https://radiosondy.info/sonde.php?sondenumber
PP5UF-6S08201062021-04-01 12:11:20-27.5235-48.23588111113776Clb=5.3m/s t=-61.9C 405.301 MHz Type=RS41-SGP Vaisala http://sondehub.org/S0820106 https://radiosondy.info/sonde.php?sondenumber
PP5UF-6S08201062021-04-01 12:10:40-27.5255-48.2477729813490Clb=9.4m/s t=-61.2C 405.301 MHz Type=RS41-SGP Vaisala http://sondehub.org/S0820106 https://radiosondy.info/sonde.php?sondenumber
PP5UF-6S08201062021-04-01 12:10:20-27.5269-48.25417711313321Clb=6.7m/s t=-60.2C 405.301 MHz Type=RS41-SGP Vaisala http://sondehub.org/S0820106 https://radiosondy.info/sonde.php?sondenumber
PP5UF-6S08201062021-04-01 12:10:00-27.528-48.267911713148Clb=11.2m/s t=-59.5C 405.301 MHz Type=RS41-SGP Vaisala http://sondehub.org/S0820106 https://radiosondy.info/sonde.php?sondenumbe
PP5UF-6S08201062021-04-01 12:09:40-27.5296-48.26657511712982Clb=9.3m/s t=-58.8C 405.301 MHz Type=RS41-SGP Vaisala http://sondehub.org/S0820106 https://radiosondy.info/sonde.php?sondenumber
PP5UF-6S08201062021-04-01 12:09:20-27.5312-48.27297211512812Clb=4.0m/s t=-58.6C 405.301 MHz Type=RS41-SGP Vaisala http://sondehub.org/S0820106 https://radiosondy.info/sonde.php?sondenumber
PP5UF-6S08201062021-04-01 12:09:00-27.5329-48.27987213512637Clb=8.9m/s t=-57.6C 405.301 MHz Type=RS41-SGP Vaisala http://sondehub.org/S0820106 https://radiosondy.info/sonde.php?sondenumber
PP5UF-6S08201062021-04-01 12:08:40-27.5352-48.28696213712507Clb=9.8m/s t=-57.0C 405.301 MHz Type=RS41-SGP Vaisala http://sondehub.org/S0820106 https://radiosondy.info/sonde.php?sondenumber
PP5UF-6S08201062021-04-01 12:08:20-27.5377-48.29426612612342Clb=3.7m/s t=-56.6C 405.301 MHz Type=RS41-SGP Vaisala http://sondehub.org/S0820106 https://radiosondy.info/sonde.php?sondenumber
PP5UF-6S08201062021-04-01 12:08:00-27.5405-48.30117213012183Clb=9.9m/s t=-55.8C 405.301 MHz Type=RS41-SGP Vaisala http://sondehub.org/S0820106 https://radiosondy.info/sonde.php?sondenumber
PP5UF-6S08201062021-04-01 12:07:40-27.543-48.30796312412028Clb=6.0m/s t=-55.1C 405.301 MHz Type=RS41-SGP Vaisala http://sondehub.org/S0820106 https://radiosondy.info/sonde.php?sondenumber
PP5UF-6S08201062021-04-01 12:07:20-27.5455-48.31416811711868Clb=8.6m/s t=-54.5C 405.301 MHz Type=RS41-SGP Vaisala http://sondehub.org/S0820106 https://radiosondy.info/sonde.php?sondenumber
PP5UF-6S08201062021-04-01 12:07:00-27.5475-48.32036510611703Clb=7.2m/s t=-53.3C 405.301 MHz Type=RS41-SGP Vaisala http://sondehub.org/S0820106 https://radiosondy.info/sonde.php?sondenumber
PP5UF-6S08201062021-04-01 12:06:40-27.5495-48.3267011511555Clb=7.8m/s t=-52.4C 405.301 MHz Type=RS41-SGP Vaisala http://sondehub.org/S0820106 https://radiosondy.info/sonde.php?sondenumber
PP5UF-6S08201062021-04-01 12:06:20-27.5516-48.3326012211420Clb=3.7m/s t=-51.3C 405.301 MHz Type=RS41-SGP Vaisala http://sondehub.org/S0820106 https://radiosondy.info/sonde.php?sondenumber
PP5UF-6S08201062021-04-01 12:05:40-27.5561-48.34416811111129Clb=6.7m/s t=-49.8C 405.301 MHz Type=RS41-SGP Vaisala http://sondehub.org/S0820106 https://radiosondy.info/sonde.php?sondenumber
PP5UF-6S08201062021-04-01 12:05:20-27.5581-48.34986911510976Clb=9.0m/s t=-49.1C 405.301 MHz Type=RS41-SGP Vaisala http://sondehub.org/S0820106 https://radiosondy.info/sonde.php?sondenumber
PP5UF-6S08201062021-04-01 12:05:00-27.5598-48.35577511710848Clb=6.3m/s t=-48.9C 405.301 MHz Type=RS41-SGP Vaisala http://sondehub.org/S0820106 https://radiosondy.info/sonde.php?sondenumber
PP5UF-6S08201062021-04-01 12:04:40-27.561-48.36157310710713Clb=5.6m/s t=-47.7C 405.301 MHz Type=RS41-SGP Vaisala http://sondehub.org/S0820106 https://radiosondy.info/sonde.php?sondenumber
PP5UF-6S08201062021-04-01 12:04:20-27.5625-48.36727110410588Clb=5.5m/s t=-46.5C 405.301 MHz Type=RS41-SGP Vaisala http://sondehub.org/S0820106 https://radiosondy.info/sonde.php?sondenumber
PP5UF-6S08201062021-04-01 12:04:00-27.5636-48.3728769610449Clb=8.0m/s t=-45.3C 405.301 MHz Type=RS41-SGP Vaisala http://sondehub.org/S0820106 https://radiosondy.info/sonde.php?sondenumber
PP5UF-6S08201062021-04-01 12:03:40-27.5649-48.37817010610333Clb=6.9m/s t=-44.2C 405.301 MHz Type=RS41-SGP Vaisala http://sondehub.org/S0820106 https://radiosondy.info/sonde.php?sondenumber
PP5UF-6S08201062021-04-01 12:03:20-27.5664-48.38367710010209Clb=5.9m/s t=-43.1C 405.301 MHz Type=RS41-SGP Vaisala http://sondehub.org/S0820106 https://radiosondy.info/sonde.php?sondenumber
PP5UF-6S08201062021-04-01 12:03:00-27.5673-48.3892839810087Clb=4.7m/s t=-42.1C 405.301 MHz Type=RS41-SGP Vaisala http://sondehub.org/S0820106 https://radiosondy.info/sonde.php?sondenumber
PP5UF-6S08201062021-04-01 12:02:20-27.5693-48.399575939860Clb=4.4m/s t=-40.2C 405.301 MHz Type=RS41-SGP Vaisala http://sondehub.org/S0820106 https://radiosondy.info/sonde.php?sondenumber
PP5UF-6S08201062021-04-01 12:02:00-27.5703-48.404469939716Clb=10.2m/s t=-39.1C 405.301 MHz Type=RS41-SGP Vaisala http://sondehub.org/S0820106 https://radiosondy.info/sonde.php?sondenumbe
PP5UF-6S08201062021-04-01 12:01:40-27.5716-48.409577949593Clb=6.4m/s t=-38.2C 405.301 MHz Type=RS41-SGP Vaisala http://sondehub.org/S0820106 https://radiosondy.info/sonde.php?sondenumber
PP5UF-6S08201062021-04-01 12:01:20-27.573-48.4146721009474Clb=5.8m/s t=-37.2C 405.301 MHz Type=RS41-SGP Vaisala http://sondehub.org/S0820106 https://radiosondy.info/sonde.php?sondenumber
PP5UF-6S08201062021-04-01 12:01:00-27.5747-48.419557919359Clb=4.2m/s t=-36.1C 405.301 MHz Type=RS41-SGP Vaisala http://sondehub.org/S0820106 https://radiosondy.info/sonde.php?sondenumber
PP5UF-6S08201062021-04-01 12:00:40-27.5765-48.424568819217Clb=5.6m/s t=-34.8C 405.301 MHz Type=RS41-SGP Vaisala http://sondehub.org/S0820106 https://radiosondy.info/sonde.php?sondenumber
PP5UF-6S08201062021-04-01 12:00:20-27.5784-48.4298681069083Clb=9.2m/s t=-33.5C 405.301 MHz Type=RS41-SGP Vaisala http://sondehub.org/S0820106 https://radiosondy.info/sonde.php?sondenumber
PP5UF-6S08201062021-04-01 12:00:00-27.5797-48.434672898956Clb=7.3m/s t=-32.4C 405.301 MHz Type=RS41-SGP Vaisala http://sondehub.org/S0820106 https://radiosondy.info/sonde.php?sondenumber
PP5UF-6S08201062021-04-01 11:59:40-27.5814-48.439366788832Clb=7.9m/s t=-31.3C 405.301 MHz Type=RS41-SGP Vaisala http://sondehub.org/S0820106 https://radiosondy.info/sonde.php?sondenumber
PP5UF-6S08201062021-04-01 11:59:20-27.583-48.44467938704Clb=5.3m/s t=-30.1C 405.301 MHz Type=RS41-SGP Vaisala http://sondehub.org/S0820106 https://radiosondy.info/sonde.php?sondenumber
PP5UF-6S08201062021-04-01 11:59:00-27.5848-48.448463768586Clb=8.3m/s t=-29.0C 405.301 MHz Type=RS41-SGP Vaisala http://sondehub.org/S0820106 https://radiosondy.info/sonde.php?sondenumber
PP5UF-6S08201062021-04-01 11:58:40-27.5865-48.452758838455Clb=9.2m/s t=-27.9C 405.301 MHz Type=RS41-SGP Vaisala http://sondehub.org/S0820106 https://radiosondy.info/sonde.php?sondenumber
PP5UF-6S08201062021-04-01 11:58:20-27.5884-48.456966808339Clb=4.9m/s t=-27.1C 405.301 MHz Type=RS41-SGP Vaisala http://sondehub.org/S0820106 https://radiosondy.info/sonde.php?sondenumber
PP5UF-6S08201062021-04-01 11:58:00-27.5901-48.461167728228Clb=6.5m/s t=-27.0C 405.301 MHz Type=RS41-SGP Vaisala http://sondehub.org/S0820106 https://radiosondy.info/sonde.php?sondenumber
PP5UF-6S08201062021-04-01 11:57:40-27.5914-48.465271838116Clb=8.4m/s t=-26.9C 405.301 MHz Type=RS41-SGP Vaisala http://sondehub.org/S0820106 https://radiosondy.info/sonde.php?sondenumber
PP5UF-6S08201062021-04-01 11:57:20-27.5923-48.469184617979Clb=7.8m/s t=-26.1C 405.301 MHz Type=RS41-SGP Vaisala http://sondehub.org/S0820106 https://radiosondy.info/sonde.php?sondenumber
PP5UF-6S08201062021-04-01 11:57:00-27.5933-48.472574637854Clb=7.7m/s t=-25.1C 405.301 MHz Type=RS41-SGP Vaisala http://sondehub.org/S0820106 https://radiosondy.info/sonde.php?sondenumber
PP5UF-6S08201062021-04-01 11:56:40-27.5944-48.475976567725Clb=2.1m/s t=-23.9C 405.301 MHz Type=RS41-SGP Vaisala http://sondehub.org/S0820106 https://radiosondy.info/sonde.php?sondenumber
PP5UF-6S08201062021-04-01 11:56:20-27.5955-48.479276617603Clb=4.1m/s t=-23.2C 405.301 MHz Type=RS41-SGP Vaisala http://sondehub.org/S0820106 https://radiosondy.info/sonde.php?sondenumber
PP5UF-6S08201062021-04-01 11:55:40-27.5962-48.483989377359Clb=3.3m/s t=-22.2C 405.301 MHz Type=RS41-SGP Vaisala http://sondehub.org/S0820106 https://radiosondy.info/sonde.php?sondenumber
PP5UF-6S08201062021-04-01 11:55:20-27.5967-48.48681307250Clb=6.0m/s t=-21.5C 405.301 MHz Type=RS41-SGP Vaisala http://sondehub.org/S0820106 https://radiosondy.info/sonde.php?sondenumber
PP5UF-6S08201062021-04-01 11:55:00-27.5972-48.488381397102Clb=8.8m/s t=-20.2C 405.301 MHz Type=RS41-SGP Vaisala http://sondehub.org/S0820106 https://radiosondy.info/sonde.php?sondenumber
PP5UF-6S08201062021-04-01 11:54:40-27.5975-48.490554566970Clb=8.2m/s t=-19.2C 405.301 MHz Type=RS41-SGP Vaisala http://sondehub.org/S0820106 https://radiosondy.info/sonde.php?sondenumber
PP5UF-6S08201062021-04-01 11:54:20-27.5987-48.492566506844Clb=8.7m/s t=-18.0C 405.301 MHz Type=RS41-SGP Vaisala http://sondehub.org/S0820106 https://radiosondy.info/sonde.php?sondenumber
PP5UF-6S08201062021-04-01 11:54:00-27.5998-48.494754376734Clb=3.4m/s t=-17.0C 405.301 MHz Type=RS41-SGP Vaisala http://sondehub.org/S0820106 https://radiosondy.info/sonde.php?sondenumber
PP5UF-6S08201062021-04-01 11:53:40-27.6004-48.49772596618Clb=4.8m/s t=-16.0C 405.301 MHz Type=RS41-SGP Vaisala http://sondehub.org/S0820106 https://radiosondy.info/sonde.php?sondenumber
PP5UF-6S08201062021-04-01 11:53:20-27.6013-48.499462376511Clb=4.7m/s t=-15.1C 405.301 MHz Type=RS41-SGP Vaisala http://sondehub.org/S0820106 https://radiosondy.info/sonde.php?sondenumber
PP5UF-6S08201062021-04-01 11:52:40-27.603-48.504572486264Clb=5.5m/s t=-13.2C 405.301 MHz Type=RS41-SGP Vaisala http://sondehub.org/S0820106 https://radiosondy.info/sonde.php?sondenumber
PP5UF-6S08201062021-04-01 11:52:20-27.6035-48.506576506127Clb=7.8m/s t=-12.2C 405.301 MHz Type=RS41-SGP Vaisala http://sondehub.org/S0820106 https://radiosondy.info/sonde.php?sondenumber
PP5UF-6S08201062021-04-01 11:52:00-27.604-48.508552416014Clb=7.8m/s t=-11.3C 405.301 MHz Type=RS41-SGP Vaisala http://sondehub.org/S0820106 https://radiosondy.info/sonde.php?sondenumber
PP5UF-6S08201062021-04-01 11:51:40-27.6047-48.510359435899Clb=6.5m/s t=-10.3C 405.301 MHz Type=RS41-SGP Vaisala http://sondehub.org/S0820106 https://radiosondy.info/sonde.php?sondenumber
PP5UF-6S08201062021-04-01 11:51:20-27.6057-48.512552395759Clb=7.2m/s t=-9.3C 405.301 MHz Type=RS41-SGP Vaisala http://sondehub.org/S0820106 https://radiosondy.info/sonde.php?sondenumber=
PP5UF-6S08201062021-04-01 11:50:20-27.6081-48.518528265409Clb=5.4m/s t=-6.4C 405.301 MHz Type=RS41-SGP Vaisala http://sondehub.org/S0820106 https://radiosondy.info/sonde.php?sondenumber=
PP5UF-6S08201062021-04-01 11:50:00-27.6088-48.519418265307Clb=7.5m/s t=-5.9C 405.301 MHz Type=RS41-SGP Vaisala http://sondehub.org/S0820106 https://radiosondy.info/sonde.php?sondenumber=
PP5UF-6S08201062021-04-01 11:49:40-27.6098-48.5225245211Clb=6.0m/s t=-5.3C 405.301 MHz Type=RS41-SGP Vaisala http://sondehub.org/S0820106 https://radiosondy.info/sonde.php?sondenumber=
PP5UF-6S08201062021-04-01 11:49:20-27.6103-48.521467435087Clb=6.8m/s t=-4.4C 405.301 MHz Type=RS41-SGP Vaisala http://sondehub.org/S0820106 https://radiosondy.info/sonde.php?sondenumber=
PP5UF-6S08201062021-04-01 11:49:00-27.6111-48.523863394935Clb=5.1m/s t=-3.8C 405.301 MHz Type=RS41-SGP Vaisala http://sondehub.org/S0820106 https://radiosondy.info/sonde.php?sondenumber=
PP5UF-6S08201062021-04-01 11:48:40-27.6126-48.526670464743Clb=6.0m/s t=-2.8C 405.301 MHz Type=RS41-SGP Vaisala http://sondehub.org/S0820106 https://radiosondy.info/sonde.php?sondenumber=
PP5UF-6S08201062021-04-01 11:48:20-27.6137-48.528434354594Clb=7.1m/s t=-1.6C 405.301 MHz Type=RS41-SGP Vaisala http://sondehub.org/S0820106 https://radiosondy.info/sonde.php?sondenumber=
PP5UF-6S08201062021-04-01 11:48:00-27.6146-48.529250394517Clb=8.1m/s t=-1.3C 405.301 MHz Type=RS41-SGP Vaisala http://sondehub.org/S0820106 https://radiosondy.info/sonde.php?sondenumber=
PP5UF-6S08201062021-04-01 11:47:40-27.6161-48.53029134394Clb=7.4m/s t=-1.6C 405.301 MHz Type=RS41-SGP Vaisala http://sondehub.org/S0820106 https://radiosondy.info/sonde.php?sondenumber=
PP5UF-6S08201062021-04-01 11:47:20-27.617-48.530954204263Clb=9.6m/s t=-1.7C 405.301 MHz Type=RS41-SGP Vaisala http://sondehub.org/S0820106 https://radiosondy.info/sonde.php?sondenumber=
PP5UF-6S08201062021-04-01 11:47:00-27.6182-48.531518194118Clb=5.2m/s t=-0.5C 405.301 MHz Type=RS41-SGP Vaisala http://sondehub.org/S0820106 https://radiosondy.info/sonde.php?sondenumber=
PP5UF-6S08201062021-04-01 11:46:40-27.6196-48.532133393972Clb=7.5m/s t=0.9C 405.301 MHz Type=RS41-SGP Vaisala http://sondehub.org/S0820106 https://radiosondy.info/sonde.php?sondenumber=S
PP5UF-6S08201062021-04-01 11:46:20-27.6211-48.53288203790Clb=8.8m/s t=2.0C 405.301 MHz Type=RS41-SGP Vaisala http://sondehub.org/S0820106 https://radiosondy.info/sonde.php?sondenumber=S
PP5UF-6S08201062021-04-01 11:45:40-27.6231-48.53324243521Clb=9.7m/s t=1.4C 405.301 MHz Type=RS41-SGP Vaisala http://sondehub.org/S0820106 https://radiosondy.info/sonde.php?sondenumber=S
PP5UF-6S08201062021-04-01 11:45:20-27.6243-48.53312203380Clb=9.1m/s t=1.6C 405.301 MHz Type=RS41-SGP Vaisala http://sondehub.org/S0820106 https://radiosondy.info/sonde.php?sondenumber=S
PP5UF-6S08201062021-04-01 11:45:00-27.6255-48.53334333231Clb=7.4m/s t=2.4C 405.301 MHz Type=RS41-SGP Vaisala http://sondehub.org/S0820106 https://radiosondy.info/sonde.php?sondenumber=S
PP5UF-6S08201062021-04-01 11:44:40-27.6265-48.533646133097Clb=7.6m/s t=2.5C 405.301 MHz Type=RS41-SGP Vaisala http://sondehub.org/S0820106 https://radiosondy.info/sonde.php?sondenumber=S
PP5UF-6S08201062021-04-01 11:44:20-27.6274-48.533927172936Clb=6.5m/s t=3.9C 405.301 MHz Type=RS41-SGP Vaisala http://sondehub.org/S0820106 https://radiosondy.info/sonde.php?sondenumber=S
PP5UF-6S08201062021-04-01 11:44:00-27.6282-48.53375152794Clb=6.4m/s t=5.1C 405.301 MHz Type=RS41-SGP Vaisala http://sondehub.org/S0820106 https://radiosondy.info/sonde.php?sondenumber=S
PP5UF-6S08201062021-04-01 11:43:40-27.6291-48.5338350152670Clb=7.3m/s t=6.1C 405.301 MHz Type=RS41-SGP Vaisala http://sondehub.org/S0820106 https://radiosondy.info/sonde.php?sondenumber=S
PP5UF-6S08201062021-04-01 11:43:20-27.63-48.5338347192520Clb=5.5m/s t=7.3C 405.301 MHz Type=RS41-SGP Vaisala http://sondehub.org/S0820106 https://radiosondy.info/sonde.php?sondenumber=S
PP5UF-6S08201062021-04-01 11:43:00-27.631-48.53360192372Clb=5.5m/s t=8.4C 405.301 MHz Type=RS41-SGP Vaisala http://sondehub.org/S0820106 https://radiosondy.info/sonde.php?sondenumber=S
PP5UF-6S08201062021-04-01 11:42:40-27.6319-48.5334359172250Clb=5.4m/s t=7.9C 405.301 MHz Type=RS41-SGP Vaisala http://sondehub.org/S0820106 https://radiosondy.info/sonde.php?sondenumber=S
PP5UF-6S08201062021-04-01 11:42:20-27.6332-48.5334343262116Clb=3.1m/s t=8.0C 405.301 MHz Type=RS41-SGP Vaisala http://sondehub.org/S0820106 https://radiosondy.info/sonde.php?sondenumber=S
PP5UF-6S08201062021-04-01 11:42:00-27.6346-48.5333347281992Clb=6.9m/s t=8.5C 405.301 MHz Type=RS41-SGP Vaisala http://sondehub.org/S0820106 https://radiosondy.info/sonde.php?sondenumber=S
PP5UF-6S08201062021-04-01 11:41:40-27.6364-48.5333356331831Clb=8.8m/s t=9.5C 405.301 MHz Type=RS41-SGP Vaisala http://sondehub.org/S0820106 https://radiosondy.info/sonde.php?sondenumber=S
PP5UF-6S08201062021-04-01 11:41:20-27.6378-48.53334331721Clb=5.8m/s t=9.8C 405.301 MHz Type=RS41-SGP Vaisala http://sondehub.org/S0820106 https://radiosondy.info/sonde.php?sondenumber=S
PP5UF-6S08201062021-04-01 11:41:01-27.6396-48.5332357331584Clb=7.5m/s t=10.1C 405.301 MHz Type=RS41-SGP Vaisala http://sondehub.org/S0820106 https://radiosondy.info/sonde.php?sondenumber=
PP5UF-6S08201062021-04-01 11:40:40-27.6414-48.5331359351449Clb=7.0m/s t=11.3C 405.301 MHz Type=RS41-SGP Vaisala http://sondehub.org/S0820106 https://radiosondy.info/sonde.php?sondenumber=
PP5UF-6S08201062021-04-01 11:40:20-27.6434-48.53346411298Clb=6.9m/s t=12.4C 405.301 MHz Type=RS41-SGP Vaisala http://sondehub.org/S0820106 https://radiosondy.info/sonde.php?sondenumber=
PP5UF-6S08201062021-04-01 11:40:00-27.6454-48.533914441159Clb=6.8m/s t=13.5C 405.301 MHz Type=RS41-SGP Vaisala http://sondehub.org/S0820106 https://radiosondy.info/sonde.php?sondenumber=
PP5UF-6S08201062021-04-01 11:39:40-27.6476-48.534616521025Clb=6.3m/s t=14.3C 405.301 MHz Type=RS41-SGP Vaisala http://sondehub.org/S0820106 https://radiosondy.info/sonde.php?sondenumber=
PP5UF-6S08201062021-04-01 11:39:20-27.65-48.53542144896Clb=5.1m/s t=14.9C 405.301 MHz Type=RS41 Vaisala http://sondehub.org/S0820106 https://radiosondy.info/sonde.php?sondenumber=S082
PP5UF-6S08201062021-04-01 11:39:00-27.6522-48.53631946771Clb=5.4m/s t=15.8C 405.301 MHz Type=RS41 Vaisala http://sondehub.org/S0820106 https://radiosondy.info/sonde.php?sondenumber=S082